Terminal Aerodrome Forecast
Issued by NWS Melbourne, FL

Home | Current Version | Previous Version | Text Only | Print | Product List | Glossary On
Versions: 1 2 3 4 5 6 7 8 9 10 11 12
000
FTUS42 KMLB 231720
TAFDAB
TAF
KDAB 231720Z 2318/2418 08007KT P6SM SCT030 SCT250
     FM240200 18003KT P6SM SCT020 BKN250
     FM241400 14006KT P6SM SCT030 SCT080 BKN250=

USA.gov is the U.S. government's official web portal to all federal, state and local government web resources and services.